A- A+ FrançaisEnglishEspañol中国

Services sur Internet Soldes sur Internet Des idées de cadeaux Météo Météo aéro

La météo à : Autours de vous Tarbes-Lourdes-PyrénéesMeaux-Esbly Toulouse-Lasbordes Charleville-Mezieres

manche à air

La météo aéronautique pour les pilotes, la préparation du vol avec les METAR (METeorological Aerodrome Report, message d'observation des conditions météorologiques pour l'aviation) et Les TAF (Terminal Aerodrome Forecast : message de prévision à court terme des conditions météorologiques pour l'aviation). Et les autres ressources comme les VAC (Visual Approch Chart) et les NOTAM (Notice To Airman) pour préprer les vols.

Aéroport Norrkoping Kungsangen (Suède) / OACI ESSP/ IATA NRK

L'altitude de l'aéroport Norrkoping Kungsangen est de 10 m = 33 ft. Il est situé à proximité de Norrköping (Suède). La météo générale à 5 jours est disponible pour Norrkoping situé à 4 km.

METAR de l'aéroport Norrkoping Kungsangen - ESSP

ESSP 291050Z AUTO VRB02KT 9999 OVC004/// 12/12 Q0995

Décodage du METAR de l'aéroport Norrkoping Kungsangen (SE)

METAR émis par ESSP le dimanche 29 septembre 2019 à 10:50 heure TU. C'est un METAR généré automatiquement. Attention ce METAR est obsolète car il a été émis il y a 23 heure et 52 minutes.

La visibilité est de supérieure à 10 km = supérieure à 6.2 sm.

La température est de 12°C = 54 °F et le point rosée est de 12°C = 54 °F . Ce qui correspond à 100% d'humidité relative.

Le QNH est de 995 hPa = 29.38 inHg

Vent de 2 kt = 4 km/h, orienté à °.

Nuages : Couverture nuageuse soudée à 400 ft = 120 mètres.

TAF de l'aéroport Norrkoping Kungsangen - ESSP

ESSP 290608Z 2906/2907 VRB02KT 9999 BKN035 PROB40 2906/2907 0100 FG VV001

ESSP 290608Z 2906/2907 VRB02KT 9999 couverture nuageuse fragmentée à 035 probabilité de 40% d'avoir 2906/2907 0100 brouillard VV001

Aéroport à proximité de Norrkoping Kungsangen

Météo générale à 5 jours à Norrkoping (4 km)Aéroport Linkoping SAAB (39 km)Aéroport Stockholm Skavsta (44 km)Aéroport Linkoping Malmen (47 km)Aéroport Eskiltuna (89 km)Aéroport Arboga (91 km)Aéroport Orebro (99 km)

Vue aérienne de l'aéroport Norrkoping Kungsangen

NOTAM de l'aéroport Norrkoping Kungsangen

Les NOTAM sont fournis sans aucune garantie de leur actualité. Le pilote est le seul responsable de la vérification de sa validité avant de l'utiliser opérationnellement pour préparer un vol ou l'utiliser lors de sa navigation.

Pas de NOTAM

Sources des données